TAF Text Data
IDs:
Format:
Raw Decoded Include METAR

Data at: 1138 UTC 17 Dec 2018

KORF 170601Z 1706/1806 34012KT P6SM BKN035
  FM170900 30009KT P6SM SCT040
  FM171500 27010KT P6SM SKC
  FM180300 34012KT P6SM SKC